sensor_id;sensor_type;location;lat;lon;timestamp;temperature;humidity
6752;DHT22;3413;47.680;9.166;2022-11-14T00:03:33;10.90;99.90
6752;DHT22;3413;47.680;9.166;2022-11-14T00:08:54;10.80;99.90
6752;DHT22;3413;47.680;9.166;2022-11-14T00:14:14;10.80;99.90
6752;DHT22;3413;47.680;9.166;2022-11-14T00:19:35;10.70;99.90
6752;DHT22;3413;47.680;9.166;2022-11-14T00:24:57;10.80;99.90
6752;DHT22;3413;47.680;9.166;2022-11-14T00:30:17;10.80;99.90
6752;DHT22;3413;47.680;9.166;2022-11-14T00:35:38;10.90;99.90
6752;DHT22;3413;47.680;9.166;2022-11-14T00:40:59;10.90;99.90
6752;DHT22;3413;47.680;9.166;2022-11-14T00:46:19;10.90;99.90
6752;DHT22;3413;47.680;9.166;2022-11-14T00:51:40;10.90;99.90
6752;DHT22;3413;47.680;9.166;2022-11-14T00:57:00;11.00;99.90
6752;DHT22;3413;47.680;9.166;2022-11-14T01:02:21;11.00;99.90
6752;DHT22;3413;47.680;9.166;2022-11-14T01:07:42;11.10;99.90
6752;DHT22;3413;47.680;9.166;2022-11-14T01:13:02;11.20;99.90
6752;DHT22;3413;47.680;9.166;2022-11-14T01:18:23;11.00;99.90
6752;DHT22;3413;47.680;9.166;2022-11-14T01:23:43;10.90;99.90
6752;DHT22;3413;47.680;9.166;2022-11-14T01:29:04;10.90;99.90
6752;DHT22;3413;47.680;9.166;2022-11-14T01:34:24;10.80;99.90
6752;DHT22;3413;47.680;9.166;2022-11-14T01:39:45;10.70;99.90
6752;DHT22;3413;47.680;9.166;2022-11-14T01:56:54;11.00;99.90
6752;DHT22;3413;47.680;9.166;2022-11-14T02:02:25;11.00;99.90
6752;DHT22;3413;47.680;9.166;2022-11-14T02:07:45;11.10;99.90
6752;DHT22;3413;47.680;9.166;2022-11-14T02:13:06;11.10;99.90
6752;DHT22;3413;47.680;9.166;2022-11-14T02:18:27;11.10;99.90
6752;DHT22;3413;47.680;9.166;2022-11-14T02:23:48;11.20;99.90
6752;DHT22;3413;47.680;9.166;2022-11-14T02:29:09;11.10;99.90
6752;DHT22;3413;47.680;9.166;2022-11-14T02:34:30;11.10;99.90
6752;DHT22;3413;47.680;9.166;2022-11-14T02:39:50;11.10;99.90
6752;DHT22;3413;47.680;9.166;2022-11-14T02:45:11;11.00;99.90
6752;DHT22;3413;47.680;9.166;2022-11-14T02:50:32;11.00;99.90
6752;DHT22;3413;47.680;9.166;2022-11-14T02:55:52;11.00;99.90
6752;DHT22;3413;47.680;9.166;2022-11-14T03:01:13;11.00;99.90
6752;DHT22;3413;47.680;9.166;2022-11-14T03:06:40;11.20;99.90
6752;DHT22;3413;47.680;9.166;2022-11-14T03:12:01;11.20;99.90
6752;DHT22;3413;47.680;9.166;2022-11-14T03:17:21;11.10;99.90
6752;DHT22;3413;47.680;9.166;2022-11-14T03:22:43;11.20;99.90
6752;DHT22;3413;47.680;9.166;2022-11-14T03:28:04;11.20;99.90
6752;DHT22;3413;47.680;9.166;2022-11-14T03:33:25;11.20;99.90
6752;DHT22;3413;47.680;9.166;2022-11-14T03:38:45;11.10;99.90
6752;DHT22;3413;47.680;9.166;2022-11-14T03:44:08;11.10;99.90
6752;DHT22;3413;47.680;9.166;2022-11-14T03:49:28;11.00;99.90
6752;DHT22;3413;47.680;9.166;2022-11-14T03:54:49;11.10;99.90
6752;DHT22;3413;47.680;9.166;2022-11-14T04:00:10;11.10;99.90
6752;DHT22;3413;47.680;9.166;2022-11-14T04:05:31;11.10;99.90
6752;DHT22;3413;47.680;9.166;2022-11-14T04:10:51;11.00;99.90
6752;DHT22;3413;47.680;9.166;2022-11-14T04:16:39;11.10;99.90
6752;DHT22;3413;47.680;9.166;2022-11-14T04:22:21;11.10;99.90
6752;DHT22;3413;47.680;9.166;2022-11-14T04:27:53;11.20;99.90
6752;DHT22;3413;47.680;9.166;2022-11-14T04:40:49;11.20;99.90
6752;DHT22;3413;47.680;9.166;2022-11-14T04:46:10;11.30;99.90
6752;DHT22;3413;47.680;9.166;2022-11-14T04:51:35;11.40;99.90
6752;DHT22;3413;47.680;9.166;2022-11-14T04:56:55;11.40;99.90
6752;DHT22;3413;47.680;9.166;2022-11-14T05:02:16;11.40;99.90
6752;DHT22;3413;47.680;9.166;2022-11-14T05:07:37;11.40;99.90
6752;DHT22;3413;47.680;9.166;2022-11-14T05:12:57;11.40;99.90
6752;DHT22;3413;47.680;9.166;2022-11-14T05:18:17;11.40;99.90
6752;DHT22;3413;47.680;9.166;2022-11-14T05:23:38;11.40;99.90
6752;DHT22;3413;47.680;9.166;2022-11-14T05:34:26;11.30;99.90
6752;DHT22;3413;47.680;9.166;2022-11-14T05:40:08;11.50;99.90
6752;DHT22;3413;47.680;9.166;2022-11-14T05:46:04;11.50;99.90
6752;DHT22;3413;47.680;9.166;2022-11-14T05:51:50;11.60;99.90
6752;DHT22;3413;47.680;9.166;2022-11-14T05:57:25;11.60;99.90
6752;DHT22;3413;47.680;9.166;2022-11-14T06:03:07;11.70;99.90
6752;DHT22;3413;47.680;9.166;2022-11-14T06:08:52;11.70;99.90
6752;DHT22;3413;47.680;9.166;2022-11-14T06:14:17;11.60;99.90
6752;DHT22;3413;47.680;9.166;2022-11-14T06:20:10;11.70;99.90
6752;DHT22;3413;47.680;9.166;2022-11-14T06:26:30;11.70;99.90
6752;DHT22;3413;47.680;9.166;2022-11-14T06:33:00;11.60;99.90
6752;DHT22;3413;47.680;9.166;2022-11-14T06:39:16;11.60;99.90
6752;DHT22;3413;47.680;9.166;2022-11-14T06:44:50;11.60;99.90
6752;DHT22;3413;47.680;9.166;2022-11-14T06:50:11;11.60;99.90
6752;DHT22;3413;47.680;9.166;2022-11-14T06:55:41;11.50;99.90
6752;DHT22;3413;47.680;9.166;2022-11-14T07:01:33;11.60;99.90
6752;DHT22;3413;47.680;9.166;2022-11-14T07:06:53;11.60;99.90
6752;DHT22;3413;47.680;9.166;2022-11-14T07:12:14;11.70;99.90
6752;DHT22;3413;47.680;9.166;2022-11-14T07:17:34;11.80;99.90
6752;DHT22;3413;47.680;9.166;2022-11-14T07:22:55;11.80;99.90
6752;DHT22;3413;47.680;9.166;2022-11-14T07:28:15;11.80;99.90
6752;DHT22;3413;47.680;9.166;2022-11-14T07:33:36;11.70;99.90
6752;DHT22;3413;47.680;9.166;2022-11-14T07:38:56;11.80;99.90
6752;DHT22;3413;47.680;9.166;2022-11-14T07:44:17;11.80;99.90
6752;DHT22;3413;47.680;9.166;2022-11-14T07:49:37;11.90;99.90
6752;DHT22;3413;47.680;9.166;2022-11-14T07:54:58;11.70;99.90
6752;DHT22;3413;47.680;9.166;2022-11-14T08:00:18;11.60;99.90
6752;DHT22;3413;47.680;9.166;2022-11-14T08:05:38;11.50;99.90
6752;DHT22;3413;47.680;9.166;2022-11-14T08:10:59;11.60;99.90
6752;DHT22;3413;47.680;9.166;2022-11-14T08:16:20;11.60;99.90
6752;DHT22;3413;47.680;9.166;2022-11-14T08:21:42;11.70;99.90
6752;DHT22;3413;47.680;9.166;2022-11-14T08:27:02;11.80;99.90
6752;DHT22;3413;47.680;9.166;2022-11-14T08:32:22;11.80;99.90
6752;DHT22;3413;47.680;9.166;2022-11-14T08:37:43;11.80;99.90
6752;DHT22;3413;47.680;9.166;2022-11-14T08:43:04;11.90;99.90
6752;DHT22;3413;47.680;9.166;2022-11-14T08:54:08;12.00;99.90
6752;DHT22;3413;47.680;9.166;2022-11-14T08:59:32;12.00;99.90
6752;DHT22;3413;47.680;9.166;2022-11-14T09:04:53;12.10;99.90
6752;DHT22;3413;47.680;9.166;2022-11-14T09:10:24;12.10;99.90
6752;DHT22;3413;47.680;9.166;2022-11-14T09:15:45;12.10;99.90
6752;DHT22;3413;47.680;9.166;2022-11-14T09:21:09;12.20;99.90
6752;DHT22;3413;47.680;9.166;2022-11-14T09:26:31;12.10;99.90
6752;DHT22;3413;47.680;9.166;2022-11-14T09:31:51;12.00;99.90
6752;DHT22;3413;47.680;9.166;2022-11-14T09:37:18;12.00;99.90
6752;DHT22;3413;47.680;9.166;2022-11-14T09:42:53;12.00;99.90
6752;DHT22;3413;47.680;9.166;2022-11-14T10:00:57;12.30;99.90
6752;DHT22;3413;47.680;9.166;2022-11-14T10:41:16;12.70;99.90
6752;DHT22;3413;47.680;9.166;2022-11-14T10:47:20;12.70;99.90
6752;DHT22;3413;47.680;9.166;2022-11-14T11:18:01;13.20;99.90
6752;DHT22;3413;47.680;9.166;2022-11-14T11:23:25;13.20;99.90
6752;DHT22;3413;47.680;9.166;2022-11-14T11:29:01;13.30;99.90
6752;DHT22;3413;47.680;9.166;2022-11-14T11:34:25;13.40;99.90
6752;DHT22;3413;47.680;9.166;2022-11-14T11:39:56;13.40;99.90
6752;DHT22;3413;47.680;9.166;2022-11-14T11:45:18;13.60;99.90
6752;DHT22;3413;47.680;9.166;2022-11-14T11:50:39;13.60;99.90
6752;DHT22;3413;47.680;9.166;2022-11-14T11:56:08;13.70;99.90
6752;DHT22;3413;47.680;9.166;2022-11-14T12:01:30;13.90;99.90
6752;DHT22;3413;47.680;9.166;2022-11-14T12:07:14;14.00;99.90
6752;DHT22;3413;47.680;9.166;2022-11-14T12:18:16;14.20;99.90
6752;DHT22;3413;47.680;9.166;2022-11-14T12:35:35;14.50;99.90
6752;DHT22;3413;47.680;9.166;2022-11-14T12:40:59;14.80;99.90
6752;DHT22;3413;47.680;9.166;2022-11-14T12:46:21;15.00;99.90
6752;DHT22;3413;47.680;9.166;2022-11-14T12:57:09;15.60;99.90
6752;DHT22;3413;47.680;9.166;2022-11-14T13:14:51;15.70;99.90
6752;DHT22;3413;47.680;9.166;2022-11-14T13:20:33;15.70;99.90
6752;DHT22;3413;47.680;9.166;2022-11-14T13:31:47;15.80;99.90
6752;DHT22;3413;47.680;9.166;2022-11-14T13:54:45;16.00;99.90
6752;DHT22;3413;47.680;9.166;2022-11-14T14:00:16;16.10;99.90
6752;DHT22;3413;47.680;9.166;2022-11-14T14:11:29;16.10;99.90
6752;DHT22;3413;47.680;9.166;2022-11-14T14:29:17;16.20;99.90
6752;DHT22;3413;47.680;9.166;2022-11-14T14:34:27;16.20;99.90
6752;DHT22;3413;47.680;9.166;2022-11-14T14:39:59;16.20;99.90
6752;DHT22;3413;47.680;9.166;2022-11-14T14:45:21;16.30;99.90
6752;DHT22;3413;47.680;9.166;2022-11-14T14:50:54;16.30;99.90
6752;DHT22;3413;47.680;9.166;2022-11-14T14:56:20;16.30;99.90
6752;DHT22;3413;47.680;9.166;2022-11-14T15:01:42;16.20;99.90
6752;DHT22;3413;47.680;9.166;2022-11-14T15:07:03;16.10;99.90
6752;DHT22;3413;47.680;9.166;2022-11-14T15:12:25;15.90;99.90
6752;DHT22;3413;47.680;9.166;2022-11-14T15:17:48;15.90;99.90
6752;DHT22;3413;47.680;9.166;2022-11-14T15:28:30;15.80;99.90
6752;DHT22;3413;47.680;9.166;2022-11-14T15:34:03;15.80;99.90
6752;DHT22;3413;47.680;9.166;2022-11-14T15:39:26;15.80;99.90
6752;DHT22;3413;47.680;9.166;2022-11-14T15:44:47;15.70;99.90
6752;DHT22;3413;47.680;9.166;2022-11-14T15:50:32;15.70;99.90
6752;DHT22;3413;47.680;9.166;2022-11-14T15:55:54;15.80;99.90
6752;DHT22;3413;47.680;9.166;2022-11-14T16:01:20;15.80;99.90
6752;DHT22;3413;47.680;9.166;2022-11-14T16:06:42;15.70;99.90
6752;DHT22;3413;47.680;9.166;2022-11-14T16:12:03;15.60;99.90
6752;DHT22;3413;47.680;9.166;2022-11-14T16:17:23;15.50;99.90
6752;DHT22;3413;47.680;9.166;2022-11-14T16:22:45;15.50;99.90
6752;DHT22;3413;47.680;9.166;2022-11-14T16:28:06;15.50;99.90
6752;DHT22;3413;47.680;9.166;2022-11-14T16:33:26;15.40;99.90
6752;DHT22;3413;47.680;9.166;2022-11-14T16:38:48;15.20;99.90
6752;DHT22;3413;47.680;9.166;2022-11-14T16:44:13;15.20;99.90
6752;DHT22;3413;47.680;9.166;2022-11-14T16:49:35;15.10;99.90
6752;DHT22;3413;47.680;9.166;2022-11-14T16:54:56;14.90;99.90
6752;DHT22;3413;47.680;9.166;2022-11-14T17:00:16;14.90;99.90
6752;DHT22;3413;47.680;9.166;2022-11-14T17:05:48;14.90;99.90
6752;DHT22;3413;47.680;9.166;2022-11-14T17:11:09;14.80;99.90
6752;DHT22;3413;47.680;9.166;2022-11-14T17:16:30;14.80;99.90
6752;DHT22;3413;47.680;9.166;2022-11-14T17:56:56;14.60;99.90
6752;DHT22;3413;47.680;9.166;2022-11-14T18:02:20;14.60;99.90
6752;DHT22;3413;47.680;9.166;2022-11-14T18:07:42;14.60;99.90
6752;DHT22;3413;47.680;9.166;2022-11-14T18:35:24;14.50;99.90
6752;DHT22;3413;47.680;9.166;2022-11-14T18:40:48;14.50;99.90
6752;DHT22;3413;47.680;9.166;2022-11-14T18:46:20;14.30;99.90
6752;DHT22;3413;47.680;9.166;2022-11-14T18:51:42;14.10;99.90
6752;DHT22;3413;47.680;9.166;2022-11-14T18:57:04;13.90;99.90
6752;DHT22;3413;47.680;9.166;2022-11-14T19:02:24;13.80;99.90
6752;DHT22;3413;47.680;9.166;2022-11-14T19:07:45;13.70;99.90
6752;DHT22;3413;47.680;9.166;2022-11-14T19:13:05;13.50;99.90
6752;DHT22;3413;47.680;9.166;2022-11-14T19:18:26;13.40;99.90
6752;DHT22;3413;47.680;9.166;2022-11-14T19:23:46;13.30;99.90
6752;DHT22;3413;47.680;9.166;2022-11-14T19:29:33;13.20;99.90
6752;DHT22;3413;47.680;9.166;2022-11-14T19:42:28;13.00;99.90
6752;DHT22;3413;47.680;9.166;2022-11-14T19:48:40;12.90;99.90
6752;DHT22;3413;47.680;9.166;2022-11-14T20:02:05;12.90;99.90
6752;DHT22;3413;47.680;9.166;2022-11-14T20:08:11;12.80;99.90
6752;DHT22;3413;47.680;9.166;2022-11-14T20:20:36;12.80;99.90
6752;DHT22;3413;47.680;9.166;2022-11-14T20:26:15;12.70;99.90
6752;DHT22;3413;47.680;9.166;2022-11-14T20:32:03;12.70;99.90
6752;DHT22;3413;47.680;9.166;2022-11-14T20:37:46;12.60;99.90
6752;DHT22;3413;47.680;9.166;2022-11-14T20:43:29;12.50;99.90
6752;DHT22;3413;47.680;9.166;2022-11-14T20:48:53;12.50;99.90
6752;DHT22;3413;47.680;9.166;2022-11-14T20:54:16;12.50;99.90
6752;DHT22;3413;47.680;9.166;2022-11-14T20:59:38;12.50;99.90
6752;DHT22;3413;47.680;9.166;2022-11-14T21:04:59;12.50;99.90
6752;DHT22;3413;47.680;9.166;2022-11-14T21:10:20;12.60;99.90
6752;DHT22;3413;47.680;9.166;2022-11-14T21:16:00;12.60;99.90
6752;DHT22;3413;47.680;9.166;2022-11-14T21:21:22;12.50;99.90
6752;DHT22;3413;47.680;9.166;2022-11-14T21:26:43;12.60;99.90
6752;DHT22;3413;47.680;9.166;2022-11-14T21:38:00;12.60;99.90
6752;DHT22;3413;47.680;9.166;2022-11-14T21:43:21;12.60;99.90
6752;DHT22;3413;47.680;9.166;2022-11-14T21:54:04;12.40;99.90
6752;DHT22;3413;47.680;9.166;2022-11-14T21:59:25;12.30;99.90
6752;DHT22;3413;47.680;9.166;2022-11-14T22:04:48;12.30;99.90
6752;DHT22;3413;47.680;9.166;2022-11-14T22:10:08;12.40;99.90
6752;DHT22;3413;47.680;9.166;2022-11-14T22:15:29;12.40;99.90
6752;DHT22;3413;47.680;9.166;2022-11-14T22:20:53;12.30;99.90
6752;DHT22;3413;47.680;9.166;2022-11-14T22:26:14;12.30;99.90
6752;DHT22;3413;47.680;9.166;2022-11-14T22:31:36;12.20;99.90
6752;DHT22;3413;47.680;9.166;2022-11-14T22:36:57;12.20;99.90
6752;DHT22;3413;47.680;9.166;2022-11-14T22:42:17;12.20;99.90
6752;DHT22;3413;47.680;9.166;2022-11-14T22:47:37;12.10;99.90
6752;DHT22;3413;47.680;9.166;2022-11-14T22:52:58;12.00;99.90
6752;DHT22;3413;47.680;9.166;2022-11-14T22:58:21;12.00;99.90
6752;DHT22;3413;47.680;9.166;2022-11-14T23:03:58;12.00;99.90
6752;DHT22;3413;47.680;9.166;2022-11-14T23:10:07;12.10;99.90
6752;DHT22;3413;47.680;9.166;2022-11-14T23:15:30;12.10;99.90
6752;DHT22;3413;47.680;9.166;2022-11-14T23:20:52;12.20;99.90
6752;DHT22;3413;47.680;9.166;2022-11-14T23:26:15;12.20;99.90
6752;DHT22;3413;47.680;9.166;2022-11-14T23:31:41;12.20;99.90
6752;DHT22;3413;47.680;9.166;2022-11-14T23:37:07;12.10;99.90
6752;DHT22;3413;47.680;9.166;2022-11-14T23:47:53;12.00;99.90
6752;DHT22;3413;47.680;9.166;2022-11-14T23:53:14;12.00;99.90
6752;DHT22;3413;47.680;9.166;2022-11-14T23:58:34;12.00;99.90
